Courtland, Mississippi
Current Conditions -  °F | °C
As of 10:55 AM on Friday 28 Nov 2014 (Local Time) from KUOX Reporting Station
Clear Clear  
Wind Chill: 38°   Ceiling: Unl
Heat Index: 43°   Visibility: 9mi
Dew Point: 25°   Wind: 8mph
Humidity: 49%   Direction: 150°SSE
Pressure: 30.39"   Gusts: NA
Location:  34.24°N, 89.94°W
Report Text: KUOX 281655Z AUTO 15007KT 9SM CLR 06/M04 A3039 RMK AO2 PWINO PNO
Loading
Personal Weather Stations






























Interactive Weather Map New forecast layout! Learn more

10-Day Weather Forecast

Advertisements
Track Severe Weather on mobile